createdAt,value
2022-12-09T00:01:14.851Z,58.90
2022-12-09T00:06:26.798Z,61.80
2022-12-09T00:11:36.606Z,57.10
2022-12-09T00:16:46.045Z,57.10
2022-12-09T00:22:06.119Z,56.90
2022-12-09T00:27:18.212Z,60.10
2022-12-09T00:32:30.758Z,61.70
2022-12-09T00:37:40.865Z,57.10
2022-12-09T00:42:51.615Z,53.20
2022-12-09T00:48:04.322Z,61.70
2022-12-09T00:53:19.489Z,58.90
2022-12-09T00:58:33.473Z,65.00
2022-12-09T01:03:41.762Z,61.70
2022-12-09T01:08:51.391Z,67.20
2022-12-09T01:14:03.638Z,57.60
2022-12-09T01:19:14.700Z,33.60
2022-12-09T01:24:23.535Z,58.10
2022-12-09T01:29:32.252Z,59.70
2022-12-09T01:35:20.779Z,61.00
2022-12-09T01:41:15.494Z,61.50
2022-12-09T01:46:32.612Z,56.90
2022-12-09T01:51:42.417Z,56.30
2022-12-09T01:56:54.836Z,63.10
2022-12-09T02:02:11.597Z,56.90
2022-12-09T02:07:23.207Z,52.80
2022-12-09T02:12:44.069Z,57.40
2022-12-09T02:17:59.600Z,52.10
2022-12-09T02:23:12.965Z,52.00
2022-12-09T02:28:46.574Z,52.60
2022-12-09T02:34:10.468Z,57.00
2022-12-09T02:39:28.278Z,53.00
2022-12-09T02:44:41.796Z,54.50
2022-12-09T02:49:52.962Z,54.50
2022-12-09T02:55:04.183Z,54.70
2022-12-09T03:00:19.066Z,47.20
2022-12-09T03:05:52.838Z,52.50
2022-12-09T03:11:11.499Z,52.90
2022-12-09T03:16:29.607Z,51.90
2022-12-09T03:21:47.321Z,51.10
2022-12-09T03:26:58.566Z,53.50
2022-12-09T03:32:07.547Z,57.80
2022-12-09T03:37:27.587Z,52.20
2022-12-09T03:42:45.491Z,53.80
2022-12-09T03:47:54.089Z,50.00
2022-12-09T03:53:06.305Z,52.50
2022-12-09T03:58:16.837Z,62.60
2022-12-09T04:03:24.458Z,53.00
2022-12-09T04:08:32.000Z,54.40
2022-12-09T04:13:39.412Z,54.00
2022-12-09T04:18:46.672Z,58.50
2022-12-09T04:23:53.858Z,53.70
2022-12-09T04:29:00.773Z,56.50
2022-12-09T04:34:09.911Z,55.90
2022-12-09T04:39:17.146Z,54.60
2022-12-09T04:44:24.505Z,54.80
2022-12-09T04:49:32.311Z,53.30
2022-12-09T04:54:39.351Z,59.50
2022-12-09T04:59:46.507Z,56.90
2022-12-09T05:04:53.968Z,63.70
2022-12-09T05:10:01.496Z,68.90
2022-12-09T05:15:10.386Z,70.30
2022-12-09T05:20:17.695Z,71.40
2022-12-09T05:25:25.022Z,70.80
2022-12-09T05:30:32.420Z,71.80
2022-12-09T05:35:50.528Z,73.50
2022-12-09T05:41:19.711Z,72.20
2022-12-09T05:46:27.424Z,76.10
2022-12-09T05:51:35.115Z,84.60
2022-12-09T05:56:47.899Z,101.80
2022-12-09T06:01:55.824Z,88.50
2022-12-09T06:07:03.056Z,92.50
2022-12-09T06:12:12.404Z,88.20
2022-12-09T06:17:20.047Z,90.20
2022-12-09T06:22:27.023Z,85.40
2022-12-09T06:27:33.957Z,86.50
2022-12-09T06:32:41.044Z,88.30
2022-12-09T06:37:49.280Z,91.50
2022-12-09T06:42:56.536Z,85.00
2022-12-09T06:48:04.022Z,92.10
2022-12-09T06:53:11.397Z,81.60
2022-12-09T06:58:18.666Z,82.30
2022-12-09T07:03:26.265Z,84.10
2022-12-09T07:08:33.514Z,85.80
2022-12-09T07:13:40.604Z,80.40
2022-12-09T07:18:47.776Z,88.10
2022-12-09T07:23:55.380Z,84.30
2022-12-09T07:29:04.665Z,84.90
2022-12-09T07:34:13.592Z,89.00
2022-12-09T07:39:21.762Z,99.10
2022-12-09T07:44:29.610Z,103.30
2022-12-09T07:49:37.392Z,99.20
2022-12-09T07:54:44.970Z,93.80
2022-12-09T07:59:53.486Z,102.40
2022-12-09T08:05:02.287Z,110.30
2022-12-09T08:10:11.525Z,102.90
2022-12-09T08:15:20.291Z,105.10
2022-12-09T08:20:29.584Z,106.10
2022-12-09T08:25:37.453Z,110.90
2022-12-09T08:30:44.697Z,107.60
2022-12-09T08:35:52.389Z,127.80
2022-12-09T08:41:00.022Z,118.60
2022-12-09T08:46:08.136Z,117.70
2022-12-09T08:51:15.822Z,119.00
2022-12-09T08:56:23.104Z,107.70
2022-12-09T09:01:34.860Z,109.40
2022-12-09T09:06:45.275Z,98.50
2022-12-09T09:11:52.679Z,96.80
2022-12-09T09:17:00.129Z,93.80
2022-12-09T09:22:07.436Z,89.50
2022-12-09T09:27:14.760Z,87.30
2022-12-09T09:32:22.154Z,76.30
2022-12-09T09:37:29.190Z,85.00
2022-12-09T09:42:45.909Z,87.40
2022-12-09T09:47:55.946Z,86.30
2022-12-09T09:53:14.880Z,74.80
2022-12-09T09:58:27.312Z,70.90
2022-12-09T10:03:53.574Z,60.40
2022-12-09T10:09:05.699Z,61.10
2022-12-09T10:14:21.164Z,62.10
2022-12-09T10:19:32.997Z,60.50
2022-12-09T10:24:44.589Z,53.60
2022-12-09T10:29:59.181Z,49.50
2022-12-09T10:35:16.542Z,34.70
2022-12-09T10:40:30.978Z,30.80
2022-12-09T10:46:16.802Z,49.80
2022-12-09T10:51:17.834Z,55.50
2022-12-09T10:56:27.377Z,53.80
2022-12-09T11:01:51.721Z,67.20
2022-12-09T11:07:02.179Z,67.10
2022-12-09T11:12:19.259Z,68.00
2022-12-09T11:17:29.349Z,59.00
2022-12-09T11:22:41.435Z,65.40
2022-12-09T11:28:01.974Z,58.70
2022-12-09T11:33:25.248Z,55.70
2022-12-09T11:39:05.536Z,53.90
2022-12-09T11:44:29.225Z,41.40
2022-12-09T11:49:48.357Z,40.80
2022-12-09T11:55:19.672Z,40.60
2022-12-09T12:00:34.221Z,40.50
2022-12-09T12:05:46.760Z,40.00
2022-12-09T12:10:58.590Z,34.40
2022-12-09T12:16:13.069Z,34.50
2022-12-09T12:21:36.849Z,31.00
2022-12-09T12:26:57.437Z,34.70
2022-12-09T12:32:17.601Z,41.20
2022-12-09T12:37:41.598Z,45.90
2022-12-09T12:43:23.440Z,49.00
2022-12-09T12:48:40.793Z,41.10
2022-12-09T12:54:03.511Z,42.60
2022-12-09T12:59:25.506Z,40.50
2022-12-09T13:04:48.658Z,49.30
2022-12-09T13:10:23.745Z,56.80
2022-12-09T13:15:38.858Z,57.70
2022-12-09T13:20:51.713Z,50.90
2022-12-09T13:26:14.245Z,54.40
2022-12-09T13:31:32.287Z,56.60
2022-12-09T13:36:53.067Z,58.80
2022-12-09T13:42:19.456Z,53.80
2022-12-09T13:47:35.526Z,60.50
2022-12-09T13:52:54.502Z,59.50
2022-12-09T13:58:24.608Z,68.40
2022-12-09T14:03:45.114Z,74.50
2022-12-09T14:09:02.572Z,65.80
2022-12-09T14:14:53.928Z,59.30
2022-12-09T14:20:17.484Z,62.00
2022-12-09T14:25:59.790Z,57.30
2022-12-09T14:31:09.487Z,58.80
2022-12-09T14:36:33.403Z,60.40
2022-12-09T14:41:50.802Z,69.60
2022-12-09T14:47:30.164Z,56.70
2022-12-09T14:52:38.748Z,58.20
2022-12-09T14:57:55.105Z,59.50
2022-12-09T15:08:37.462Z,66.30
2022-12-09T15:13:48.827Z,80.10
2022-12-09T15:18:57.566Z,71.10
2022-12-09T15:24:17.119Z,73.70
2022-12-09T15:29:32.107Z,83.90
2022-12-09T15:34:44.240Z,88.90
2022-12-09T15:39:59.044Z,78.10
2022-12-09T15:45:15.440Z,80.20
2022-12-09T15:50:28.867Z,83.20
2022-12-09T16:01:23.853Z,86.10
2022-12-09T16:06:36.643Z,88.20
2022-12-09T16:11:50.335Z,90.10
2022-12-09T16:17:02.340Z,84.70
2022-12-09T16:22:18.084Z,86.10
2022-12-09T16:27:33.997Z,93.10
2022-12-09T16:33:17.552Z,94.60
2022-12-09T16:38:47.546Z,98.20
2022-12-09T16:44:02.883Z,112.30
2022-12-09T16:49:12.312Z,105.60
2022-12-09T16:54:39.728Z,117.90
2022-12-09T16:59:55.681Z,113.80
2022-12-09T17:05:25.079Z,107.70
2022-12-09T17:10:37.535Z,104.60
2022-12-09T17:15:51.702Z,103.00
2022-12-09T17:21:16.830Z,98.50
2022-12-09T17:26:26.010Z,104.50
2022-12-09T17:31:36.900Z,96.70
2022-12-09T17:36:48.663Z,91.40
2022-12-09T17:41:58.253Z,92.80
2022-12-09T17:47:11.485Z,100.10
2022-12-09T17:52:20.750Z,98.10
2022-12-09T17:57:42.954Z,95.60
2022-12-09T18:03:04.196Z,100.50
2022-12-09T18:08:37.180Z,100.60
2022-12-09T18:13:49.068Z,99.20
2022-12-09T18:19:04.625Z,109.50
2022-12-09T18:24:15.789Z,120.90
2022-12-09T18:29:31.279Z,108.50
2022-12-09T18:34:44.263Z,111.10
2022-12-09T18:39:53.509Z,114.20
2022-12-09T18:45:06.324Z,106.40
2022-12-09T18:50:17.939Z,112.50
2022-12-09T18:55:25.677Z,110.40
2022-12-09T19:00:32.971Z,127.50
2022-12-09T19:05:43.774Z,121.10
2022-12-09T19:11:11.053Z,118.80
2022-12-09T19:16:20.138Z,139.10
2022-12-09T19:21:28.643Z,126.40
2022-12-09T19:26:37.935Z,140.50
2022-12-09T19:31:47.017Z,139.70
2022-12-09T19:36:58.029Z,149.00
2022-12-09T19:42:06.362Z,158.20
2022-12-09T19:47:13.558Z,154.40
2022-12-09T19:52:21.108Z,153.40
2022-12-09T19:57:47.554Z,161.30
2022-12-09T20:03:02.109Z,193.40
2022-12-09T20:08:10.802Z,227.80
2022-12-09T20:13:19.252Z,200.90
2022-12-09T20:18:27.012Z,197.20
2022-12-09T20:23:35.119Z,199.90
2022-12-09T20:28:44.562Z,196.70
2022-12-09T20:33:58.528Z,182.30
2022-12-09T20:39:12.436Z,187.90
2022-12-09T20:44:21.211Z,182.70
2022-12-09T20:49:44.244Z,184.00
2022-12-09T20:55:03.019Z,178.80
2022-12-09T21:00:19.317Z,163.60
2022-12-09T21:05:29.776Z,188.20
2022-12-09T21:10:37.528Z,172.20
2022-12-09T21:15:45.874Z,177.80
2022-12-09T21:20:56.398Z,174.20
2022-12-09T21:26:08.302Z,176.00
2022-12-09T21:31:19.818Z,188.30
2022-12-09T21:36:29.443Z,167.10
2022-12-09T21:41:38.463Z,176.40
2022-12-09T21:46:46.212Z,184.90
2022-12-09T21:51:56.514Z,183.10
2022-12-09T21:57:03.695Z,180.70
2022-12-09T22:02:12.732Z,181.50
2022-12-09T22:07:22.561Z,180.70
2022-12-09T22:12:33.287Z,184.40
2022-12-09T22:17:41.844Z,151.40
2022-12-09T22:22:49.109Z,174.20
2022-12-09T22:28:02.250Z,195.60
2022-12-09T22:33:10.000Z,177.80
2022-12-09T22:38:17.667Z,169.50
2022-12-09T22:43:36.466Z,165.80
2022-12-09T22:48:46.218Z,184.40
2022-12-09T22:53:56.104Z,166.60
2022-12-09T22:59:03.855Z,172.70
2022-12-09T23:04:14.436Z,182.00
2022-12-09T23:09:27.346Z,183.60
2022-12-09T23:14:38.037Z,176.60
2022-12-09T23:19:48.262Z,180.30
2022-12-09T23:25:02.810Z,173.80
2022-12-09T23:30:12.060Z,173.80
2022-12-09T23:35:22.003Z,164.80
2022-12-09T23:40:32.453Z,182.10
2022-12-09T23:45:39.680Z,163.30
2022-12-09T23:50:46.861Z,172.80
2022-12-09T23:55:53.965Z,177.60
